Time;durP1;ratioP1;P1;durP2;ratioP2;P2;SDS_P1;SDS_P2;PMS_P1;PMS_P2;Temp;Humidity;BMP_temperature;BMP_pressure;BME280_temperature;BME280_humidity;BME280_pressure;Samples;Min_cycle;Max_cycle;Signal;HPM_P1;HPM_P2
2023/01/05 00:02:21;;;;;;;4.17;1.20;;;;;;;11.64;100.00;99103.38;4974201;28;20208;-80
2023/01/05 00:04:51;;;;;;;4.70;1.00;;;;;;;11.66;100.00;99106.78;4953758;28;20231;-80
2023/01/05 00:07:21;;;;;;;3.17;0.80;;;;;;;11.67;100.00;99097.84;4977479;28;20322;-81
2023/01/05 00:09:53;;;;;;;3.47;0.87;;;;;;;11.60;100.00;99112.53;4993009;28;20294;-81
2023/01/05 00:24:01;;;;;;;2.13;0.80;;;;;;;11.62;100.00;99090.22;4976424;28;20195;-83
2023/01/05 00:26:57;;;;;;;4.87;1.00;;;;;;;11.53;100.00;99088.22;5008244;28;20259;-81
2023/01/05 00:29:30;;;;;;;2.03;1.10;;;;;;;11.60;100.00;99088.66;5009773;28;20281;-81
2023/01/05 00:32:02;;;;;;;3.47;1.07;;;;;;;11.77;100.00;99101.56;5013869;28;20685;-80
2023/01/05 00:34:32;;;;;;;2.40;1.10;;;;;;;11.55;100.00;99109.31;5017913;28;20279;-81
2023/01/05 00:37:02;;;;;;;1.60;0.83;;;;;;;11.61;100.00;99117.72;5008366;28;20233;-80
2023/01/05 00:39:31;;;;;;;1.53;0.80;;;;;;;11.59;100.00;99110.84;5011845;28;20411;-81
2023/01/05 00:41:59;;;;;;;1.60;0.70;;;;;;;11.78;100.00;99107.75;5048089;28;20348;-81
2023/01/05 00:44:30;;;;;;;2.33;0.70;;;;;;;11.74;100.00;99096.47;5059754;28;20596;-82
2023/01/05 00:47:07;;;;;;;2.93;1.00;;;;;;;11.73;100.00;99106.25;5073020;28;20192;-82
2023/01/05 00:49:36;;;;;;;3.33;0.90;;;;;;;11.65;100.00;99084.72;5073398;28;20188;-82
2023/01/05 00:52:05;;;;;;;5.90;1.00;;;;;;;11.79;100.00;99081.09;5067123;28;20219;-81
2023/01/05 00:54:34;;;;;;;4.30;1.13;;;;;;;11.80;100.00;99080.19;5062820;28;20200;-82
2023/01/05 00:57:04;;;;;;;5.20;1.30;;;;;;;11.82;100.00;99083.56;5019010;28;20192;-82
2023/01/05 00:59:33;;;;;;;6.93;1.30;;;;;;;11.76;100.00;99092.75;5075286;28;20181;-81
2023/01/05 01:02:04;;;;;;;8.40;2.20;;;;;;;11.78;100.00;99108.59;5064038;28;20201;-81
2023/01/05 01:04:34;;;;;;;5.77;1.57;;;;;;;11.86;100.00;99095.66;5063486;28;20208;-81
2023/01/05 01:07:04;;;;;;;9.83;2.07;;;;;;;11.85;100.00;99101.91;5067863;28;20205;-80
2023/01/05 01:09:33;;;;;;;6.03;1.50;;;;;;;11.81;100.00;99107.56;5065589;28;20200;-81
2023/01/05 01:12:05;;;;;;;8.73;2.00;;;;;;;11.65;100.00;99099.78;5074880;28;20191;-80
2023/01/05 01:14:38;;;;;;;11.77;2.27;;;;;;;11.58;100.00;99098.50;5072689;28;20192;-80
2023/01/05 01:17:12;;;;;;;14.00;2.40;;;;;;;11.52;100.00;99088.31;5086096;28;20646;-81
2023/01/05 01:19:42;;;;;;;6.80;1.73;;;;;;;11.56;100.00;99101.25;5048119;28;20192;-81
2023/01/05 01:22:10;;;;;;;10.73;2.00;;;;;;;11.56;100.00;99098.59;4986164;28;20702;-81
2023/01/05 01:24:41;;;;;;;6.40;2.00;;;;;;;11.50;100.00;99095.56;4999660;28;20206;-81
2023/01/05 01:27:11;;;;;;;11.20;2.40;;;;;;;11.30;100.00;99086.31;4997223;28;20194;-81
2023/01/05 01:29:44;;;;;;;8.90;2.30;;;;;;;11.27;100.00;99091.78;4950525;28;20191;-81
2023/01/05 01:32:20;;;;;;;8.83;2.10;;;;;;;11.35;100.00;99092.97;4915512;29;20364;-81
2023/01/05 01:34:54;;;;;;;12.40;2.70;;;;;;;11.42;100.00;99104.88;4951713;29;20315;-80
2023/01/05 01:37:22;;;;;;;8.87;2.20;;;;;;;11.49;100.00;99080.59;4953044;28;20207;-81
2023/01/05 01:39:52;;;;;;;8.63;2.03;;;;;;;11.26;100.00;99075.03;4969227;28;20247;-80
2023/01/05 01:42:26;;;;;;;8.57;1.97;;;;;;;11.25;100.00;99086.59;4969538;28;20196;-81
2023/01/05 01:45:01;;;;;;;8.67;1.80;;;;;;;11.35;100.00;99076.22;4960682;28;20200;-80
2023/01/05 01:47:40;;;;;;;8.37;1.80;;;;;;;11.24;100.00;99084.06;5007553;28;20197;-80
2023/01/05 01:50:15;;;;;;;9.27;2.07;;;;;;;11.21;100.00;99089.59;5037824;28;20207;-80
2023/01/05 01:52:46;;;;;;;9.97;2.20;;;;;;;11.16;100.00;99093.38;5072355;28;20192;-81
2023/01/05 01:55:19;;;;;;;8.90;2.30;;;;;;;11.11;100.00;99092.84;5069556;28;20687;-81
2023/01/05 01:57:51;;;;;;;9.10;2.17;;;;;;;11.15;100.00;99102.28;5065730;28;20189;-80
2023/01/05 02:00:21;;;;;;;8.33;2.27;;;;;;;11.13;100.00;99098.03;5065315;28;20216;-81
2023/01/05 02:02:56;;;;;;;9.40;1.90;;;;;;;11.23;100.00;99087.66;5068370;28;20193;-81
2023/01/05 02:05:32;;;;;;;15.97;2.83;;;;;;;11.15;100.00;99090.84;5010007;28;20214;-81
2023/01/05 02:08:01;;;;;;;10.23;2.30;;;;;;;11.11;100.00;99086.69;5009048;28;20226;-81
2023/01/05 02:10:43;;;;;;;10.47;2.07;;;;;;;11.05;100.00;99095.06;5006606;28;20201;-81
2023/01/05 02:13:34;;;;;;;11.73;2.60;;;;;;;10.88;100.00;99091.72;5005637;28;20237;-81
2023/01/05 02:16:17;;;;;;;8.97;2.23;;;;;;;10.98;100.00;99091.09;5007471;28;20186;-81
2023/01/05 02:19:31;;;;;;;10.07;2.20;;;;;;;10.99;100.00;99100.75;5017263;28;20190;-80
2023/01/05 02:22:24;;;;;;;8.93;2.80;;;;;;;10.85;100.00;99078.69;5011126;28;20321;-81
2023/01/05 02:25:24;;;;;;;17.47;3.00;;;;;;;10.85;100.00;99088.44;5035324;28;20227;-80
2023/01/05 02:28:08;;;;;;;13.73;4.93;;;;;;;10.79;100.00;99078.22;5070142;28;20185;-80
2023/01/05 02:31:06;;;;;;;10.83;3.07;;;;;;;10.71;100.00;99078.75;5058669;28;20223;-80
2023/01/05 02:33:59;;;;;;;11.07;2.30;;;;;;;10.66;100.00;99082.66;5069758;28;20195;-80
2023/01/05 02:36:31;;;;;;;13.83;2.87;;;;;;;10.58;100.00;99084.00;5074937;28;20192;-81
2023/01/05 02:39:07;;;;;;;14.80;2.63;;;;;;;10.79;100.00;99079.06;5074439;28;20185;-81
2023/01/05 02:41:42;;;;;;;14.47;3.37;;;;;;;10.59;100.00;99080.38;5071225;28;20195;-81
2023/01/05 02:44:21;;;;;;;14.33;3.20;;;;;;;10.67;100.00;99095.78;5072011;28;20191;-81
2023/01/05 02:47:02;;;;;;;14.57;3.33;;;;;;;10.54;100.00;99082.50;5072593;28;20386;-80
2023/01/05 02:49:36;;;;;;;13.40;2.60;;;;;;;10.70;100.00;99095.56;5080180;28;20199;-81
2023/01/05 02:52:09;;;;;;;10.07;2.57;;;;;;;10.73;100.00;99105.16;5074080;28;20279;-81
2023/01/05 02:54:47;;;;;;;15.07;2.57;;;;;;;10.67;100.00;99094.94;5072278;28;20242;-81
2023/01/05 02:57:20;;;;;;;10.80;2.50;;;;;;;10.76;100.00;99100.47;5084803;28;20196;-81
2023/01/05 03:00:13;;;;;;;12.97;2.53;;;;;;;10.81;100.00;99100.19;5070368;28;20269;-81
2023/01/05 03:02:48;;;;;;;15.33;3.10;;;;;;;10.68;100.00;99102.78;5054255;28;20192;-80
2023/01/05 03:05:22;;;;;;;11.93;2.97;;;;;;;10.66;100.00;99103.84;5070772;28;20196;-80
2023/01/05 03:07:53;;;;;;;14.90;3.63;;;;;;;10.79;100.00;99110.03;5051706;28;20221;-81
2023/01/05 03:16:01;;;;;;;9.80;2.43;;;;;;;10.74;100.00;99106.84;5074890;28;20250;-81
2023/01/05 03:18:32;;;;;;;13.57;2.93;;;;;;;10.69;100.00;99116.88;5073539;28;20192;-81
2023/01/05 03:21:01;;;;;;;10.53;2.63;;;;;;;10.75;100.00;99113.84;5072556;28;20188;-81
2023/01/05 03:37:39;;;;;;;15.97;3.00;;;;;;;10.87;100.00;99124.47;5072594;28;20201;-81
2023/01/05 03:40:15;;;;;;;11.70;2.70;;;;;;;10.96;100.00;99117.72;5076653;28;20238;-81
2023/01/05 03:42:45;;;;;;;10.90;2.53;;;;;;;10.94;100.00;99129.38;5076292;28;20207;-81
2023/01/05 03:45:16;;;;;;;13.40;3.13;;;;;;;10.91;100.00;99134.88;5075335;28;20200;-81
2023/01/05 03:47:44;;;;;;;13.90;2.77;;;;;;;10.99;100.00;99127.25;5073100;28;20224;-81
2023/01/05 03:50:17;;;;;;;12.00;2.90;;;;;;;10.92;100.00;99136.59;5076194;28;20194;-81
2023/01/05 03:52:46;;;;;;;10.07;2.43;;;;;;;10.96;100.00;99133.63;5054368;28;20204;-81
2023/01/05 03:55:16;;;;;;;11.13;2.40;;;;;;;11.06;100.00;99132.06;5076269;28;20241;-81
2023/01/05 03:57:45;;;;;;;9.60;2.30;;;;;;;11.11;100.00;99122.00;5071802;28;20196;-81
2023/01/05 04:00:15;;;;;;;16.27;3.37;;;;;;;10.99;100.00;99129.91;5075755;28;20204;-81
2023/01/05 04:02:43;;;;;;;14.47;2.90;;;;;;;10.91;100.00;99130.44;5032428;28;20251;-80
2023/01/05 04:05:16;;;;;;;14.63;2.87;;;;;;;11.13;100.00;99140.47;5030418;28;20194;-81
2023/01/05 04:07:47;;;;;;;13.70;3.23;;;;;;;10.95;100.00;99136.38;5033990;28;20232;-81
2023/01/05 04:10:17;;;;;;;17.73;2.90;;;;;;;11.03;100.00;99142.03;5018029;28;20213;-81
2023/01/05 04:12:48;;;;;;;15.07;2.97;;;;;;;11.00;100.00;99144.84;5033993;28;20186;-81
2023/01/05 04:15:16;;;;;;;19.83;3.30;;;;;;;10.98;100.00;99154.72;4989279;28;20203;-81
2023/01/05 04:17:45;;;;;;;10.00;2.70;;;;;;;10.90;100.00;99141.97;4992200;28;20191;-81
2023/01/05 04:20:15;;;;;;;15.43;2.87;;;;;;;11.00;100.00;99151.03;4970413;28;20230;-80
2023/01/05 04:22:44;;;;;;;16.37;3.23;;;;;;;11.09;100.00;99147.75;4991609;28;20199;-80
2023/01/05 04:25:12;;;;;;;15.23;2.93;;;;;;;11.10;100.00;99152.13;4989320;28;20203;-81
2023/01/05 04:27:40;;;;;;;15.50;3.63;;;;;;;11.00;100.00;99158.09;5023991;28;20228;-80
2023/01/05 04:30:11;;;;;;;19.60;3.60;;;;;;;11.09;100.00;99166.28;5042832;28;20196;-80
2023/01/05 04:32:39;;;;;;;11.53;2.70;;;;;;;11.15;100.00;99162.41;5049428;28;20198;-81
2023/01/05 04:35:08;;;;;;;14.20;2.70;;;;;;;11.02;100.00;99167.69;5074163;28;20204;-81
2023/01/05 04:37:41;;;;;;;12.23;2.60;;;;;;;10.97;100.00;99167.13;5072681;28;20258;-81
2023/01/05 04:40:11;;;;;;;13.83;3.20;;;;;;;10.84;100.00;99160.94;5074244;28;20196;-81
2023/01/05 04:42:42;;;;;;;10.20;2.50;;;;;;;10.96;100.00;99167.22;5074199;28;20524;-80
2023/01/05 04:45:11;;;;;;;13.70;3.40;;;;;;;11.01;100.00;99167.78;5072338;28;20223;-81
2023/01/05 04:47:39;;;;;;;14.43;2.97;;;;;;;10.88;100.00;99165.91;5072772;28;20250;-81
2023/01/05 04:50:10;;;;;;;11.93;2.33;;;;;;;10.93;100.00;99184.19;5069744;28;20204;-81
2023/01/05 04:52:40;;;;;;;16.00;2.87;;;;;;;10.92;100.00;99174.53;5076236;28;20193;-81
2023/01/05 04:55:11;;;;;;;13.50;3.37;;;;;;;10.70;100.00;99176.84;5072401;28;20325;-81
2023/01/05 04:57:41;;;;;;;15.87;3.00;;;;;;;10.77;100.00;99179.00;5075103;28;20197;-81
2023/01/05 05:00:10;;;;;;;15.80;3.00;;;;;;;10.78;100.00;99182.50;5074929;28;20238;-80
2023/01/05 05:02:42;;;;;;;16.80;3.73;;;;;;;10.57;100.00;99176.78;5071948;28;20197;-81
2023/01/05 05:05:11;;;;;;;8.73;2.10;;;;;;;10.67;100.00;99198.25;5071148;28;20321;-80
2023/01/05 05:07:39;;;;;;;10.83;2.73;;;;;;;10.73;100.00;99179.31;5071569;28;20220;-81
2023/01/05 05:10:11;;;;;;;10.17;2.53;;;;;;;10.68;100.00;99198.13;5072754;28;20266;-81
2023/01/05 05:12:40;;;;;;;13.60;2.60;;;;;;;10.67;100.00;99192.94;5068643;28;20207;-81
2023/01/05 05:15:10;;;;;;;12.03;2.67;;;;;;;10.48;100.00;99194.09;5076309;28;20191;-80
2023/01/05 05:17:39;;;;;;;13.37;2.60;;;;;;;10.49;100.00;99185.22;5049567;28;20204;-80
2023/01/05 05:20:09;;;;;;;11.17;2.57;;;;;;;10.49;100.00;99194.97;5047872;28;20200;-81
2023/01/05 05:22:37;;;;;;;16.57;2.87;;;;;;;10.48;100.00;99190.63;5049999;28;20191;-81
2023/01/05 05:25:07;;;;;;;15.13;3.30;;;;;;;10.55;100.00;99198.06;5046596;28;20189;-81
2023/01/05 05:27:37;;;;;;;17.63;3.33;;;;;;;10.60;100.00;99192.47;5043596;28;20213;-81
2023/01/05 05:30:07;;;;;;;14.73;2.87;;;;;;;10.51;100.00;99193.06;5045390;28;20276;-81
2023/01/05 05:32:35;;;;;;;10.67;2.40;;;;;;;10.40;100.00;99198.19;5049296;28;20216;-81
2023/01/05 05:35:11;;;;;;;13.07;2.83;;;;;;;10.41;100.00;99202.53;5046596;28;20245;-80
2023/01/05 05:37:40;;;;;;;11.53;2.67;;;;;;;10.44;100.00;99200.56;5044224;28;20201;-81
2023/01/05 05:40:12;;;;;;;13.83;3.20;;;;;;;10.19;100.00;99214.41;5048202;28;20193;-80
2023/01/05 05:42:42;;;;;;;15.40;2.90;;;;;;;10.12;100.00;99218.38;5060659;28;20271;-81
2023/01/05 05:45:12;;;;;;;17.33;3.27;;;;;;;10.04;100.00;99218.03;5073978;28;20204;-80
2023/01/05 05:47:40;;;;;;;18.47;2.87;;;;;;;10.01;100.00;99212.91;5072385;28;20258;-80
2023/01/05 05:50:09;;;;;;;12.50;2.80;;;;;;;10.18;100.00;99218.03;5074539;28;20200;-81
2023/01/05 05:52:40;;;;;;;16.50;3.20;;;;;;;10.19;100.00;99226.81;5051621;28;20264;-81
2023/01/05 05:55:09;;;;;;;16.00;3.67;;;;;;;10.04;100.00;99226.81;5047626;28;20189;-81
2023/01/05 05:57:38;;;;;;;17.93;2.80;;;;;;;10.14;100.00;99229.75;5049098;28;20521;-80
2023/01/05 06:00:10;;;;;;;12.23;2.83;;;;;;;10.25;100.00;99240.56;5049229;28;20231;-81
2023/01/05 06:02:39;;;;;;;10.50;2.70;;;;;;;10.25;100.00;99232.63;5046315;28;20205;-80
2023/01/05 06:05:09;;;;;;;13.23;2.53;;;;;;;10.25;100.00;99234.41;5037197;28;20270;-81
2023/01/05 06:07:39;;;;;;;10.33;2.40;;;;;;;10.30;100.00;99240.25;4989682;28;20243;-81
2023/01/05 06:10:09;;;;;;;10.60;2.43;;;;;;;10.27;100.00;99248.41;4989423;28;20193;-80
2023/01/05 06:12:38;;;;;;;11.40;2.67;;;;;;;10.39;100.00;99239.69;4953203;28;20208;-80
2023/01/05 06:15:18;;;;;;;12.87;3.13;;;;;;;10.35;100.00;99240.00;4950148;29;20305;-80
2023/01/05 06:17:47;;;;;;;13.47;2.73;;;;;;;10.36;100.00;99241.69;4953608;29;20223;-81
2023/01/05 06:20:17;;;;;;;10.60;2.63;;;;;;;10.39;100.00;99249.44;4948805;29;20199;-81
2023/01/05 06:22:45;;;;;;;12.50;2.30;;;;;;;10.32;100.00;99246.31;4949340;29;20272;-81
2023/01/05 06:25:14;;;;;;;15.63;2.60;;;;;;;10.37;100.00;99248.69;4948891;29;20197;-81
2023/01/05 06:27:43;;;;;;;16.17;3.47;;;;;;;10.39;100.00;99258.22;4953233;28;20204;-81
2023/01/05 06:30:14;;;;;;;11.90;2.77;;;;;;;10.38;100.00;99253.88;4951606;29;20200;-81
2023/01/05 06:32:44;;;;;;;10.63;2.70;;;;;;;10.40;100.00;99254.63;4914855;29;20216;-81
2023/01/05 06:35:13;;;;;;;12.53;2.43;;;;;;;10.33;100.00;99253.34;4909748;29;20214;-81
2023/01/05 06:37:41;;;;;;;13.90;3.10;;;;;;;10.31;100.00;99247.25;4964493;28;20263;-81
2023/01/05 06:40:11;;;;;;;12.73;2.70;;;;;;;10.35;100.00;99255.88;5027808;28;20623;-81
2023/01/05 06:42:40;;;;;;;17.73;3.40;;;;;;;10.20;100.00;99258.47;5032831;28;20201;-81
2023/01/05 06:45:12;;;;;;;17.47;3.23;;;;;;;10.41;100.00;99268.72;5027789;28;20193;-81
2023/01/05 06:47:42;;;;;;;17.57;2.90;;;;;;;10.42;100.00;99278.38;5029817;28;20194;-80
2023/01/05 06:50:11;;;;;;;11.43;2.67;;;;;;;10.22;100.00;99275.13;5032617;28;20193;-81
2023/01/05 06:52:40;;;;;;;13.53;3.10;;;;;;;10.26;100.00;99283.75;5071706;28;20200;-80
2023/01/05 06:55:10;;;;;;;10.00;2.50;;;;;;;10.11;100.00;99280.19;5075220;28;20279;-81
2023/01/05 06:57:39;;;;;;;14.27;3.13;;;;;;;10.19;100.00;99285.03;5069864;28;20578;-80
2023/01/05 07:00:11;;;;;;;15.70;3.13;;;;;;;10.11;100.00;99297.88;5071371;28;20240;-81
2023/01/05 07:02:40;;;;;;;15.67;2.83;;;;;;;10.16;100.00;99301.13;5072386;28;20207;-82
2023/01/05 07:05:11;;;;;;;11.97;3.07;;;;;;;10.10;100.00;99307.63;5071162;28;20188;-81
2023/01/05 07:07:40;;;;;;;14.87;3.23;;;;;;;10.06;100.00;99314.03;5069790;28;20228;-81
2023/01/05 07:10:09;;;;;;;14.87;3.13;;;;;;;9.92;100.00;99314.84;5068828;28;20717;-81
2023/01/05 07:12:38;;;;;;;15.77;2.73;;;;;;;9.82;100.00;99326.06;5072656;28;20196;-81
2023/01/05 07:15:07;;;;;;;16.73;3.43;;;;;;;9.81;100.00;99329.66;5063898;28;20246;-81
2023/01/05 07:17:38;;;;;;;20.07;3.50;;;;;;;9.69;100.00;99339.16;5066247;28;20266;-81
2023/01/05 07:20:10;;;;;;;14.23;2.90;;;;;;;9.71;100.00;99348.69;5071016;28;20200;-82
2023/01/05 07:22:39;;;;;;;16.73;3.37;;;;;;;9.76;100.00;99348.44;5067302;28;20208;-81
2023/01/05 07:25:10;;;;;;;19.13;4.07;;;;;;;9.79;100.00;99360.63;5007935;28;20241;-81
2023/01/05 07:27:41;;;;;;;12.70;3.13;;;;;;;9.73;100.00;99362.66;5007153;28;20221;-81
2023/01/05 07:30:11;;;;;;;20.70;3.50;;;;;;;9.67;100.00;99367.47;5006114;28;20630;-82
2023/01/05 07:32:40;;;;;;;14.73;3.03;;;;;;;9.56;100.00;99362.81;5004045;28;20210;-81
2023/01/05 07:35:10;;;;;;;18.33;3.70;;;;;;;9.72;100.00;99365.41;5006793;28;20689;-81
2023/01/05 07:37:43;;;;;;;20.00;3.60;;;;;;;9.55;100.00;99370.78;5005412;28;20265;-82
2023/01/05 07:40:12;;;;;;;13.93;3.40;;;;;;;9.66;100.00;99379.00;5005010;28;20194;-81
2023/01/05 07:42:41;;;;;;;15.80;3.37;;;;;;;9.57;100.00;99382.16;5017742;28;20235;-81
2023/01/05 07:45:10;;;;;;;17.40;3.80;;;;;;;9.60;100.00;99385.47;5067072;28;20648;-81
2023/01/05 07:47:39;;;;;;;13.43;3.30;;;;;;;9.54;100.00;99401.69;5068843;28;20210;-82
2023/01/05 07:50:10;;;;;;;14.07;3.37;;;;;;;9.67;100.00;99402.72;5067866;28;20215;-81
2023/01/05 07:52:41;;;;;;;13.53;3.03;;;;;;;9.72;100.00;99410.38;5070130;28;20196;-81
2023/01/05 07:55:10;;;;;;;15.50;3.23;;;;;;;9.67;100.00;99409.81;5072205;28;20253;-81
2023/01/05 07:57:41;;;;;;;20.17;3.77;;;;;;;9.56;100.00;99404.25;5071789;28;20196;-81
2023/01/05 08:00:14;;;;;;;20.73;3.40;;;;;;;9.66;100.00;99413.38;5072175;28;20203;-81
2023/01/05 08:02:43;;;;;;;18.87;3.40;;;;;;;9.53;100.00;99404.41;5023485;28;20263;-81
2023/01/05 08:05:13;;;;;;;19.37;3.83;;;;;;;9.68;100.00;99419.44;5025238;28;20197;-81
2023/01/05 08:07:43;;;;;;;16.57;3.53;;;;;;;9.51;100.00;99422.16;5027370;28;20365;-81
2023/01/05 08:10:31;;;;;;;18.67;3.17;;;;;;;9.43;100.00;99431.34;5024265;28;20393;-82
2023/01/05 08:15:52;;;;;;;21.43;4.20;;;;;;;9.37;100.00;99439.66;4986721;28;20203;-81
2023/01/05 08:18:22;;;;;;;18.73;4.07;;;;;;;9.46;100.00;99447.06;5023438;28;20204;-82
2023/01/05 08:20:54;;;;;;;16.53;4.40;;;;;;;9.48;100.00;99448.78;5023049;28;20236;-82
2023/01/05 08:23:28;;;;;;;18.47;4.53;;;;;;;9.53;100.00;99460.78;5026200;28;20225;-81
2023/01/05 08:25:57;;;;;;;12.60;3.13;;;;;;;9.50;100.00;99463.63;5030893;28;20204;-81
2023/01/05 08:28:25;;;;;;;18.07;3.77;;;;;;;9.50;100.00;99462.75;5023082;28;20197;-81
2023/01/05 08:31:05;;;;;;;15.00;3.73;;;;;;;9.50;100.00;99468.91;5032596;28;20193;-81
2023/01/05 08:33:37;;;;;;;19.33;4.37;;;;;;;9.33;100.00;99463.66;5048851;28;20196;-81
2023/01/05 08:36:11;;;;;;;17.90;3.33;;;;;;;9.41;100.00;99474.69;5054517;28;20265;-81
2023/01/05 08:38:47;;;;;;;19.50;3.97;;;;;;;9.41;100.00;99482.63;5093530;28;20252;-81
2023/01/05 08:41:18;;;;;;;22.50;4.17;;;;;;;9.53;100.00;99476.66;5091467;28;20183;-81
2023/01/05 08:43:50;;;;;;;16.70;4.30;;;;;;;9.36;100.00;99482.00;5084643;28;20242;-81
2023/01/05 08:46:19;;;;;;;18.27;4.73;;;;;;;9.39;100.00;99485.34;5074482;28;20200;-81
2023/01/05 08:48:49;;;;;;;16.53;4.33;;;;;;;9.36;100.00;99489.94;5071222;28;20193;-81
2023/01/05 08:51:20;;;;;;;28.57;5.33;;;;;;;9.29;100.00;99502.63;5075264;28;20200;-82
2023/01/05 08:53:52;;;;;;;16.30;4.53;;;;;;;9.34;100.00;99491.81;5074798;28;20196;-81
2023/01/05 08:56:23;;;;;;;18.07;4.90;;;;;;;9.36;100.00;99501.38;5073851;28;20192;-82
2023/01/05 08:58:54;;;;;;;22.80;5.63;;;;;;;9.28;100.00;99495.66;5069169;28;20196;-82
2023/01/05 09:01:26;;;;;;;22.77;4.67;;;;;;;9.34;100.00;99500.59;5070448;28;20207;-81
2023/01/05 09:03:56;;;;;;;16.60;4.73;;;;;;;9.57;100.00;99499.38;5074853;28;20218;-82
2023/01/05 09:06:26;;;;;;;24.50;4.77;;;;;;;9.73;100.00;99502.00;5070988;28;20230;-82
2023/01/05 09:08:55;;;;;;;15.63;4.10;;;;;;;9.98;100.00;99494.44;5074877;28;20230;-81
2023/01/05 09:11:25;;;;;;;17.97;4.57;;;;;;;9.84;100.00;99507.56;4993149;28;20646;-81
2023/01/05 09:13:56;;;;;;;20.33;4.23;;;;;;;9.88;100.00;99505.63;4993420;28;20203;-81
2023/01/05 09:16:28;;;;;;;19.13;4.27;;;;;;;10.07;100.00;99495.72;4988186;28;20238;-82
2023/01/05 09:19:18;;;;;;;15.57;3.63;;;;;;;10.27;100.00;99498.09;4988652;28;20267;-81
2023/01/05 09:21:51;;;;;;;19.47;3.47;;;;;;;10.42;100.00;99490.19;4990109;28;20199;-81
2023/01/05 09:24:19;;;;;;;15.80;3.57;;;;;;;10.33;100.00;99494.25;4987361;28;20245;-81
2023/01/05 09:26:49;;;;;;;18.20;4.30;;;;;;;10.32;100.00;99489.88;4984838;28;20214;-81
2023/01/05 09:29:19;;;;;;;15.70;3.50;;;;;;;10.22;100.00;99486.91;5010614;28;20647;-82
2023/01/05 09:31:48;;;;;;;19.97;4.20;;;;;;;10.26;100.00;99495.56;4999164;28;20198;-82
2023/01/05 09:34:17;;;;;;;17.43;3.03;;;;;;;10.11;100.00;99484.00;5027255;28;20190;-82
2023/01/05 09:36:46;;;;;;;15.73;3.30;;;;;;;10.23;100.00;99493.94;4966736;28;20200;-81
2023/01/05 09:39:19;;;;;;;14.23;3.43;;;;;;;10.37;100.00;99486.97;4933455;29;20197;-82
2023/01/05 09:41:51;;;;;;;14.50;2.97;;;;;;;10.30;100.00;99483.81;4932848;29;20275;-81
2023/01/05 09:44:29;;;;;;;21.37;4.83;;;;;;;10.29;100.00;99488.28;4928804;29;20193;-81
2023/01/05 09:47:02;;;;;;;18.33;3.73;;;;;;;10.36;100.00;99494.06;4887799;29;20211;-82
2023/01/05 09:49:34;;;;;;;17.40;3.50;;;;;;;10.26;100.00;99499.03;4930096;29;20213;-82
2023/01/05 09:52:09;;;;;;;16.10;3.30;;;;;;;10.40;100.00;99498.25;4935192;29;20218;-81
2023/01/05 09:54:40;;;;;;;18.47;3.87;;;;;;;10.37;100.00;99493.13;4955475;28;20200;-81
2023/01/05 09:57:17;;;;;;;19.43;3.50;;;;;;;10.57;100.00;99497.25;4995026;28;20202;-81
2023/01/05 09:59:49;;;;;;;17.23;3.37;;;;;;;10.46;100.00;99489.09;4989047;28;20210;-81
2023/01/05 10:02:27;;;;;;;19.63;3.73;;;;;;;10.43;100.00;99484.00;5002394;28;20201;-81
2023/01/05 10:04:56;;;;;;;13.60;3.63;;;;;;;10.66;100.00;99485.28;5046044;28;20201;-81
2023/01/05 10:07:35;;;;;;;15.30;3.60;;;;;;;10.71;100.00;99494.69;5051996;28;20819;-81
2023/01/05 10:10:14;;;;;;;13.43;3.10;;;;;;;10.84;100.00;99497.44;5061916;28;20211;-81
2023/01/05 10:13:05;;;;;;;16.63;3.80;;;;;;;11.05;100.00;99493.50;5063090;28;20185;-82
2023/01/05 10:15:43;;;;;;;12.77;3.33;;;;;;;11.31;100.00;99486.59;5072049;28;20188;-82
2023/01/05 10:18:14;;;;;;;17.73;3.93;;;;;;;11.26;100.00;99493.13;5080071;28;20195;-81
2023/01/05 10:20:55;;;;;;;15.30;3.23;;;;;;;11.20;100.00;99477.63;5088572;28;20199;-81
2023/01/05 10:23:39;;;;;;;70.50;33.47;;;;;;;10.89;100.00;99496.19;5088224;28;20196;-81
2023/01/05 10:26:15;;;;;;;192.93;87.97;;;;;;;10.79;100.00;99499.50;5075609;28;20193;-82
2023/01/05 10:28:51;;;;;;;19.90;6.83;;;;;;;10.91;100.00;99479.38;5049184;28;20230;-82
2023/01/05 10:31:24;;;;;;;29.60;8.90;;;;;;;11.13;100.00;99471.81;5054521;28;20719;-81
2023/01/05 10:33:54;;;;;;;24.30;8.63;;;;;;;11.30;100.00;99492.00;5093461;28;20187;-82
2023/01/05 10:36:43;;;;;;;22.50;7.20;;;;;;;11.21;100.00;99471.38;5092216;28;20187;-81
2023/01/05 10:39:48;;;;;;;23.07;6.37;;;;;;;11.38;100.00;99472.00;5094182;28;20195;-82
2023/01/05 10:42:42;;;;;;;20.90;7.07;;;;;;;11.52;100.00;99471.16;5093701;27;20203;-81
2023/01/05 10:45:13;;;;;;;12.67;4.10;;;;;;;11.71;100.00;99477.00;5084943;28;20198;-81
2023/01/05 10:47:46;;;;;;;14.77;3.47;;;;;;;11.81;100.00;99495.03;5078817;28;20207;-81
2023/01/05 10:50:30;;;;;;;10.27;2.50;;;;;;;11.70;100.00;99483.25;5033944;28;20223;-81
2023/01/05 10:53:02;;;;;;;13.40;3.37;;;;;;;11.69;100.00;99484.22;5070682;28;20195;-81
2023/01/05 10:55:32;;;;;;;13.63;3.43;;;;;;;11.71;100.00;99484.13;5061787;28;20189;-81
2023/01/05 10:58:22;;;;;;;12.67;2.73;;;;;;;11.81;100.00;99489.72;5091299;28;20187;-81
2023/01/05 11:00:54;;;;;;;12.47;3.07;;;;;;;11.69;100.00;99492.19;5090012;28;20198;-81
2023/01/05 11:03:32;;;;;;;17.80;3.50;;;;;;;11.97;100.00;99478.03;5085979;28;20180;-81
2023/01/05 11:06:23;;;;;;;12.03;3.70;;;;;;;11.66;100.00;99478.22;5093566;28;20287;-81
2023/01/05 11:09:05;;;;;;;13.73;4.47;;;;;;;11.61;100.00;99477.69;5087192;28;20218;-81
2023/01/05 11:11:39;;;;;;;12.90;3.57;;;;;;;11.60;100.00;99489.25;5080683;28;20239;-80
2023/01/05 11:14:17;;;;;;;14.37;3.60;;;;;;;11.62;100.00;99495.31;5051149;28;20191;-81
2023/01/05 11:16:58;;;;;;;19.83;3.77;;;;;;;11.50;100.00;99493.44;5075918;28;20187;-81
2023/01/05 11:19:33;;;;;;;16.60;3.57;;;;;;;11.50;100.00;99485.47;5084443;28;20287;-82
2023/01/05 11:22:04;;;;;;;17.67;3.87;;;;;;;11.46;100.00;99479.47;5043387;28;20219;-81
2023/01/05 11:24:34;;;;;;;15.27;3.20;;;;;;;11.48;100.00;99501.44;5082449;28;20198;-81
2023/01/05 11:27:22;;;;;;;19.20;4.60;;;;;;;11.21;100.00;99498.72;5067061;28;20205;-80
2023/01/05 11:30:34;;;;;;;12.87;2.97;;;;;;;11.75;100.00;99499.72;5003094;28;20186;-81
2023/01/05 11:33:15;;;;;;;19.50;3.60;;;;;;;11.74;100.00;99502.47;5005724;28;20685;-81
2023/01/05 11:35:53;;;;;;;15.97;3.40;;;;;;;11.84;100.00;99506.28;5003141;28;20206;-81
2023/01/05 11:38:25;;;;;;;14.43;3.43;;;;;;;11.69;100.00;99517.84;5005858;28;20205;-81
2023/01/05 11:40:55;;;;;;;18.40;3.90;;;;;;;11.43;100.00;99509.72;5002106;28;20206;-82
2023/01/05 11:43:28;;;;;;;19.13;4.40;;;;;;;11.25;100.00;99507.34;5008486;28;20198;-81
2023/01/05 11:46:03;;;;;;;17.40;3.77;;;;;;;11.41;100.00;99505.47;4977372;28;20196;-81
2023/01/05 11:48:35;;;;;;;14.30;3.93;;;;;;;11.45;100.00;99504.31;4986675;28;20708;-82
2023/01/05 11:51:10;;;;;;;13.70;3.17;;;;;;;11.49;100.00;99512.94;4988408;28;20219;-81
2023/01/05 11:53:42;;;;;;;16.67;4.13;;;;;;;11.16;100.00;99514.91;5022106;28;20209;-81
2023/01/05 11:56:20;;;;;;;14.27;3.47;;;;;;;11.60;100.00;99507.81;5023997;28;20258;-81
2023/01/05 11:58:53;;;;;;;17.47;4.17;;;;;;;11.55;100.00;99507.25;5057628;28;20204;-81
2023/01/05 12:04:35;;;;;;;20.87;4.43;;;;;;;11.38;100.00;99519.75;5130579;27;20602;-81
2023/01/05 12:07:18;;;;;;;15.13;4.37;;;;;;;11.52;100.00;99516.25;5095590;28;20187;-81
2023/01/05 12:09:54;;;;;;;19.77;3.60;;;;;;;11.61;100.00;99520.13;5104847;28;20209;-81
2023/01/05 12:12:46;;;;;;;19.17;3.73;;;;;;;11.63;100.00;99519.09;5098804;28;20199;-81
2023/01/05 12:15:47;;;;;;;15.83;3.53;;;;;;;11.68;100.00;99513.50;5056257;28;20206;-81
2023/01/05 12:18:41;;;;;;;17.57;6.07;;;;;;;11.45;100.00;99520.22;5117687;28;20190;-81
2023/01/05 12:21:16;;;;;;;21.50;7.93;;;;;;;11.25;100.00;99521.44;5077555;28;20186;-81
2023/01/05 12:24:10;;;;;;;17.73;4.63;;;;;;;11.30;100.00;99511.44;5127868;28;20239;-81
2023/01/05 12:26:46;;;;;;;15.00;3.73;;;;;;;11.43;100.00;99514.16;5114365;28;20197;-81